Time;durP1;ratioP1;P1;durP2;ratioP2;P2;SDS_P1;SDS_P2;PMS_P1;PMS_P2;Temp;Humidity;BMP_temperature;BMP_pressure;BME280_temperature;BME280_humidity;BME280_pressure;Samples;Min_cycle;Max_cycle;Signal;HPM_P1;HPM_P2
2023/12/30 00:02:15;;;;;;;5.30;2.80;;;;;;;9.20;91.44;148455.00;4964195;28;20301;-52
2023/12/30 00:04:42;;;;;;;4.87;2.27;;;;;;;9.27;90.50;148471.16;4958386;28;20344;-53
2023/12/30 00:07:11;;;;;;;4.13;2.10;;;;;;;9.28;89.64;148474.91;4965574;28;20230;-56
2023/12/30 00:09:38;;;;;;;6.07;2.23;;;;;;;9.28;88.52;148473.66;4958550;28;20238;-54
2023/12/30 00:12:08;;;;;;;3.40;1.80;;;;;;;9.29;87.99;148476.13;4963921;28;20336;-56
2023/12/30 00:14:34;;;;;;;4.40;1.90;;;;;;;9.31;nan;148481.13;4959631;28;20302;-54
2023/12/30 00:17:01;;;;;;;3.27;1.90;;;;;;;9.28;92.56;148473.66;4959855;28;20238;-56
2023/12/30 00:19:27;;;;;;;4.87;2.20;;;;;;;9.28;90.38;148474.91;4962396;28;20219;-56
2023/12/30 00:21:54;;;;;;;3.60;2.07;;;;;;;9.24;91.88;148463.69;4961416;28;20243;-53
2023/12/30 00:24:22;;;;;;;5.57;2.60;;;;;;;9.25;91.29;148467.47;4961967;28;20446;-56
2023/12/30 00:26:48;;;;;;;4.40;2.40;;;;;;;9.13;93.17;148437.59;4961796;28;20226;-54
2023/12/30 00:29:15;;;;;;;3.77;2.10;;;;;;;9.12;94.24;148435.09;4962666;28;20223;-56
2023/12/30 00:31:41;;;;;;;3.20;2.20;;;;;;;9.07;94.16;148422.66;4960734;28;20234;-55
2023/12/30 00:34:09;;;;;;;3.63;1.87;;;;;;;8.97;95.13;148400.25;4960207;28;20235;-53
2023/12/30 00:36:35;;;;;;;4.23;1.97;;;;;;;9.01;94.22;148410.22;4961653;28;20564;-56
2023/12/30 00:39:03;;;;;;;3.40;2.20;;;;;;;9.05;93.25;148417.69;4964380;28;20230;-56
2023/12/30 00:41:31;;;;;;;3.90;1.60;;;;;;;8.96;91.72;148397.78;4961742;28;20256;-56
2023/12/30 00:43:58;;;;;;;2.93;1.97;;;;;;;8.99;91.36;148405.25;4959479;28;20239;-53
2023/12/30 00:46:25;;;;;;;3.10;1.57;;;;;;;9.05;88.04;148417.69;4964170;28;20235;-56
2023/12/30 00:48:51;;;;;;;4.40;1.47;;;;;;;8.98;91.26;148401.53;4961731;28;20235;-55
2023/12/30 00:51:18;;;;;;;3.73;1.37;;;;;;;8.97;89.94;148399.03;4983072;28;20278;-56
2023/12/30 00:53:44;;;;;;;1.97;1.20;;;;;;;9.06;85.76;148420.16;4978486;28;20257;-55
2023/12/30 00:56:11;;;;;;;4.47;1.30;;;;;;;9.09;87.77;148428.84;4982547;28;20234;-55
2023/12/30 00:58:39;;;;;;;2.37;1.50;;;;;;;9.06;87.19;148420.16;4978687;28;20226;-56
2023/12/30 01:01:08;;;;;;;1.80;1.20;;;;;;;9.04;86.66;148416.41;4965006;28;20244;-54
2023/12/30 01:03:34;;;;;;;2.93;1.67;;;;;;;9.10;86.12;148430.13;4962424;28;20622;-56
2023/12/30 01:06:01;;;;;;;2.07;1.20;;;;;;;9.11;85.41;148433.81;4968456;28;20250;-56
2023/12/30 01:08:27;;;;;;;3.93;1.97;;;;;;;9.14;85.33;148440.06;4980246;28;20222;-56
2023/12/30 01:10:54;;;;;;;2.47;1.50;;;;;;;9.07;89.93;148423.88;4963639;28;20248;-56
2023/12/30 01:13:21;;;;;;;4.37;1.60;;;;;;;9.10;85.19;148431.34;4981708;28;20223;-52
2023/12/30 01:15:49;;;;;;;2.53;1.47;;;;;;;9.07;88.50;148422.66;4965075;28;20695;-53
2023/12/30 01:18:15;;;;;;;4.07;1.67;;;;;;;9.08;88.83;148425.16;4966601;28;20698;-56
2023/12/30 01:20:42;;;;;;;7.43;1.67;;;;;;;8.98;90.38;148401.53;4963948;28;20232;-54
2023/12/30 01:23:08;;;;;;;2.87;1.40;;;;;;;8.96;91.15;148397.78;4967944;28;20718;-54
2023/12/30 01:25:37;;;;;;;2.13;1.30;;;;;;;8.94;91.25;148391.56;4976808;28;20831;-52
2023/12/30 01:28:04;;;;;;;4.00;1.47;;;;;;;8.94;88.35;148392.78;4965537;28;20250;-56
2023/12/30 01:30:31;;;;;;;2.70;1.60;;;;;;;8.86;90.86;148374.16;4973999;28;20227;-57
2023/12/30 01:32:59;;;;;;;2.23;1.20;;;;;;;8.68;95.99;148329.38;4979318;28;20246;-56
2023/12/30 01:35:26;;;;;;;5.90;1.40;;;;;;;8.76;94.23;148348.00;4965248;28;20249;-54
2023/12/30 01:37:52;;;;;;;3.90;1.50;;;;;;;8.67;93.95;148328.09;4964481;28;20232;-56
2023/12/30 01:40:19;;;;;;;2.90;1.30;;;;;;;8.71;92.71;148338.06;4982584;28;20226;-56
2023/12/30 01:42:46;;;;;;;3.53;1.40;;;;;;;8.68;95.42;148329.38;4962257;28;20222;-55
2023/12/30 01:45:13;;;;;;;2.67;1.10;;;;;;;8.70;95.93;148335.56;4967005;28;20223;-53
2023/12/30 01:47:40;;;;;;;2.27;1.50;;;;;;;8.57;96.74;148304.50;4961273;28;20226;-56
2023/12/30 01:50:10;;;;;;;3.37;1.50;;;;;;;8.63;93.63;148316.94;4964597;28;20329;-55
2023/12/30 01:52:37;;;;;;;3.67;1.53;;;;;;;8.69;94.21;148331.84;4962989;28;20281;-53
2023/12/30 01:55:05;;;;;;;1.97;1.10;;;;;;;8.68;94.46;148330.59;4966147;28;20233;-53
2023/12/30 01:57:32;;;;;;;2.10;1.20;;;;;;;8.69;95.21;148333.06;4959993;28;20215;-55
2023/12/30 02:00:01;;;;;;;2.13;1.30;;;;;;;8.60;94.86;148310.69;4979736;28;20234;-54
2023/12/30 02:02:28;;;;;;;2.93;1.83;;;;;;;8.61;95.21;148311.94;4963653;28;20251;-55
2023/12/30 02:04:56;;;;;;;5.87;1.97;;;;;;;8.58;97.08;148305.72;4978339;28;20234;-56
2023/12/30 02:07:23;;;;;;;2.40;1.40;;;;;;;8.48;96.85;148280.84;4962766;28;20230;-56
2023/12/30 02:09:50;;;;;;;4.13;1.90;;;;;;;8.46;98.65;148275.84;4973594;28;20243;-57
2023/12/30 02:12:17;;;;;;;2.70;1.50;;;;;;;8.30;100.00;148237.28;4965472;28;20326;-55
2023/12/30 02:14:44;;;;;;;4.20;1.77;;;;;;;8.21;100.00;148216.16;4964491;28;20228;-56
2023/12/30 02:17:11;;;;;;;2.83;1.70;;;;;;;8.19;100.00;148211.19;4964605;28;20241;-55
2023/12/30 02:19:37;;;;;;;3.30;1.53;;;;;;;8.04;100.00;148176.38;4961726;28;20368;-55
2023/12/30 02:22:06;;;;;;;4.90;1.60;;;;;;;8.05;100.00;148177.59;4981160;28;20239;-57
2023/12/30 02:24:37;;;;;;;3.13;1.80;;;;;;;8.05;100.00;148177.59;4962342;28;20226;-56
2023/12/30 02:27:04;;;;;;;4.50;1.40;;;;;;;7.97;100.00;148158.97;4964311;28;20240;-57
2023/12/30 02:29:31;;;;;;;3.17;1.80;;;;;;;7.91;100.00;148145.31;4961560;28;20705;-56
2023/12/30 02:31:57;;;;;;;3.50;1.57;;;;;;;7.96;100.00;148156.47;4962961;28;20249;-56
2023/12/30 02:34:24;;;;;;;3.57;1.67;;;;;;;7.94;100.00;148151.50;4961872;28;20227;-55
2023/12/30 02:36:50;;;;;;;3.10;1.67;;;;;;;8.02;100.00;148171.41;4975776;28;20231;-57
2023/12/30 02:39:19;;;;;;;3.50;1.50;;;;;;;8.11;100.00;148193.78;4964687;28;20230;-56
2023/12/30 02:41:48;;;;;;;3.37;1.33;;;;;;;8.17;100.00;148206.22;4961108;28;20630;-55
2023/12/30 02:44:18;;;;;;;3.87;1.20;;;;;;;8.22;100.00;148218.66;4981237;28;20235;-56
2023/12/30 02:46:45;;;;;;;2.93;1.50;;;;;;;8.25;100.00;148227.34;4962235;28;20314;-56
2023/12/30 02:49:11;;;;;;;1.87;1.17;;;;;;;8.24;100.00;148223.63;4980792;28;20222;-56
2023/12/30 02:51:38;;;;;;;2.53;1.10;;;;;;;8.21;100.00;148217.38;4960586;28;20242;-55
2023/12/30 02:54:05;;;;;;;2.07;1.30;;;;;;;8.28;100.00;148233.56;4977757;28;20257;-53
2023/12/30 02:56:31;;;;;;;3.27;1.37;;;;;;;8.31;100.00;148239.75;4961745;28;20230;-55
2023/12/30 02:59:00;;;;;;;5.53;1.63;;;;;;;8.34;100.00;148247.22;4979508;28;20228;-55
2023/12/30 03:01:29;;;;;;;2.70;1.30;;;;;;;8.30;100.00;148237.28;4962953;28;20225;-53
2023/12/30 03:03:57;;;;;;;4.50;1.10;;;;;;;8.35;100.00;148249.72;4960600;28;20234;-53
2023/12/30 03:06:24;;;;;;;5.07;1.40;;;;;;;8.31;100.00;148241.03;4962196;28;20714;-53
2023/12/30 03:08:51;;;;;;;1.97;1.13;;;;;;;8.31;100.00;148239.75;4962837;28;20316;-53
2023/12/30 03:11:17;;;;;;;2.23;1.30;;;;;;;8.33;100.00;148246.00;4963122;28;20747;-54
2023/12/30 03:13:44;;;;;;;3.03;1.67;;;;;;;8.22;100.00;148219.88;4973854;28;20217;-56
2023/12/30 03:16:13;;;;;;;4.30;1.60;;;;;;;8.24;100.00;148223.63;4964473;28;20218;-53
2023/12/30 03:18:40;;;;;;;4.13;1.30;;;;;;;8.25;100.00;148226.09;4961724;28;20216;-53
2023/12/30 03:21:08;;;;;;;3.47;1.20;;;;;;;8.22;100.00;148218.66;4978891;28;20239;-55
2023/12/30 03:23:35;;;;;;;4.23;1.40;;;;;;;8.22;100.00;148219.88;4959550;28;20718;-54
2023/12/30 03:26:02;;;;;;;3.07;1.33;;;;;;;8.21;100.00;148217.38;4964781;28;20230;-54
2023/12/30 03:28:29;;;;;;;2.10;1.00;;;;;;;8.24;100.00;148224.84;4962759;28;20222;-54
2023/12/30 03:30:56;;;;;;;5.40;1.30;;;;;;;8.25;100.00;148226.09;4960679;28;20238;-54
2023/12/30 03:33:24;;;;;;;1.63;1.03;;;;;;;8.26;100.00;148228.59;4963797;28;20232;-54
2023/12/30 03:35:52;;;;;;;3.80;1.00;;;;;;;8.26;100.00;148229.81;4959762;28;20234;-53
2023/12/30 03:38:19;;;;;;;1.93;0.60;;;;;;;8.32;100.00;148242.25;4961923;28;20223;-55
2023/12/30 03:40:46;;;;;;;2.17;0.93;;;;;;;8.35;100.00;148250.97;4977192;28;20241;-53
2023/12/30 03:43:13;;;;;;;4.67;0.97;;;;;;;8.30;100.00;148238.53;4962115;28;20234;-55
2023/12/30 03:45:39;;;;;;;3.97;0.90;;;;;;;8.31;100.00;148239.75;4960933;28;20581;-53
2023/12/30 03:48:07;;;;;;;2.83;1.10;;;;;;;8.30;100.00;148238.53;4961107;28;20239;-53
2023/12/30 03:50:36;;;;;;;1.93;0.90;;;;;;;8.28;100.00;148233.56;4958465;28;20229;-53
2023/12/30 03:53:04;;;;;;;3.40;1.07;;;;;;;8.30;100.00;148238.53;4963899;28;20253;-54
2023/12/30 03:55:30;;;;;;;3.57;1.10;;;;;;;8.29;100.00;148236.06;4975413;28;20218;-57
2023/12/30 03:57:57;;;;;;;1.47;1.00;;;;;;;8.26;100.00;148229.81;4962054;28;20246;-56
2023/12/30 04:00:24;;;;;;;1.97;0.90;;;;;;;8.27;100.00;148231.09;4959493;28;20218;-54
2023/12/30 04:02:50;;;;;;;3.50;0.80;;;;;;;8.24;100.00;148223.63;4959140;28;20247;-56
2023/12/30 04:05:17;;;;;;;2.30;0.80;;;;;;;8.29;100.00;148236.06;4962012;28;20625;-56
2023/12/30 04:07:45;;;;;;;1.77;0.80;;;;;;;8.27;100.00;148231.09;4972867;28;20214;-53
2023/12/30 04:10:12;;;;;;;1.80;0.90;;;;;;;8.30;100.00;148238.53;4970101;28;20225;-56
2023/12/30 04:12:39;;;;;;;1.90;0.90;;;;;;;8.26;100.00;148229.81;4958917;28;20688;-54
2023/12/30 04:15:07;;;;;;;2.83;1.10;;;;;;;8.25;100.00;148227.34;4961297;28;20241;-53
2023/12/30 04:17:34;;;;;;;0.90;0.60;;;;;;;8.23;100.00;148222.34;4974623;28;20221;-55
2023/12/30 04:20:00;;;;;;;1.37;0.53;;;;;;;8.21;100.00;148217.38;4964229;28;20227;-55
2023/12/30 04:22:28;;;;;;;1.20;0.60;;;;;;;8.23;100.00;148222.34;4965682;28;20579;-55
2023/12/30 04:24:57;;;;;;;3.70;0.90;;;;;;;8.22;100.00;148218.66;4954804;28;20325;-57
2023/12/30 04:27:23;;;;;;;1.37;0.70;;;;;;;8.16;100.00;148204.94;4974614;28;20286;-53
2023/12/30 04:29:50;;;;;;;2.17;0.77;;;;;;;8.13;100.00;148197.47;4964047;28;20633;-54
2023/12/30 04:32:17;;;;;;;3.90;0.70;;;;;;;8.16;100.00;148203.72;5204826;23;20218;-54
2023/12/30 04:34:44;;;;;;;2.20;0.80;;;;;;;8.17;100.00;148206.22;5017700;28;20224;-53
2023/12/30 04:37:10;;;;;;;0.90;0.50;;;;;;;8.10;100.00;148190.03;5024685;28;20236;-53
2023/12/30 04:39:37;;;;;;;1.13;0.70;;;;;;;8.11;100.00;148192.50;5003815;28;20225;-54
2023/12/30 04:42:06;;;;;;;4.27;0.80;;;;;;;8.07;100.00;148183.81;5022499;28;20228;-55
2023/12/30 04:44:33;;;;;;;4.10;1.00;;;;;;;8.05;100.00;148177.59;5032783;23;20334;-61
2023/12/30 04:47:00;;;;;;;1.20;0.70;;;;;;;8.04;100.00;148176.38;5021385;28;20679;-61
2023/12/30 04:49:26;;;;;;;0.87;0.67;;;;;;;8.03;100.00;148173.88;5006073;28;20315;-61
2023/12/30 04:51:53;;;;;;;2.90;0.67;;;;;;;8.02;100.00;148171.41;5003459;28;20608;-61
2023/12/30 04:54:20;;;;;;;2.93;0.93;;;;;;;8.05;100.00;148177.59;5006864;28;20246;-61
2023/12/30 04:56:46;;;;;;;2.07;0.87;;;;;;;7.97;100.00;148158.97;5020797;28;20222;-61
2023/12/30 04:59:14;;;;;;;1.70;0.80;;;;;;;7.95;100.00;148153.97;5022063;28;20227;-61
2023/12/30 05:01:41;;;;;;;1.20;0.73;;;;;;;7.95;100.00;148155.19;5015039;28;20236;-61
2023/12/30 05:04:08;;;;;;;2.83;1.27;;;;;;;7.91;100.00;148144.03;5005146;28;20252;-61
2023/12/30 05:06:35;;;;;;;3.00;1.23;;;;;;;7.82;100.00;148124.16;5018073;28;20235;-61
2023/12/30 05:09:01;;;;;;;2.57;1.37;;;;;;;7.72;100.00;148098.06;5022428;28;20709;-61
2023/12/30 05:11:28;;;;;;;2.73;1.60;;;;;;;7.66;100.00;148085.63;5024216;28;20293;-61
2023/12/30 05:13:54;;;;;;;3.60;1.73;;;;;;;7.61;100.00;148073.19;5019147;28;20232;-61
2023/12/30 05:16:22;;;;;;;8.27;2.70;;;;;;;7.58;100.00;148064.47;5023904;28;20587;-61
2023/12/30 05:18:49;;;;;;;3.97;2.10;;;;;;;7.56;100.00;148060.78;5020081;28;20227;-61
2023/12/30 05:21:16;;;;;;;5.13;2.20;;;;;;;7.53;100.00;148053.31;5023529;28;20232;-61
2023/12/30 05:23:44;;;;;;;6.07;2.30;;;;;;;7.50;100.00;148047.06;5021201;28;20219;-61
2023/12/30 05:26:13;;;;;;;4.67;2.50;;;;;;;7.51;100.00;148049.56;5023644;28;20215;-61
2023/12/30 05:28:39;;;;;;;4.37;2.13;;;;;;;7.53;100.00;148053.31;5021152;28;20615;-60
2023/12/30 05:31:06;;;;;;;6.50;2.70;;;;;;;7.54;100.00;148057.00;5022986;28;20227;-60
2023/12/30 05:33:34;;;;;;;6.57;2.40;;;;;;;7.58;100.00;148065.75;5021000;28;20227;-60
2023/12/30 05:36:00;;;;;;;3.40;2.10;;;;;;;7.57;100.00;148061.97;5023195;28;20224;-60
2023/12/30 05:38:27;;;;;;;6.00;2.73;;;;;;;7.60;100.00;148070.72;5024848;28;20220;-60
2023/12/30 05:40:54;;;;;;;5.53;2.60;;;;;;;7.64;100.00;148079.38;5023970;28;20302;-60
2023/12/30 05:43:20;;;;;;;5.53;2.40;;;;;;;7.67;100.00;148086.84;5027129;28;20223;-60
2023/12/30 05:45:47;;;;;;;6.77;2.60;;;;;;;7.71;100.00;148096.78;5023027;28;20212;-61
2023/12/30 05:48:13;;;;;;;5.90;2.57;;;;;;;7.74;100.00;148104.25;5025850;28;20232;-61
2023/12/30 05:50:41;;;;;;;7.23;2.47;;;;;;;7.71;100.00;148095.56;5023606;28;20219;-61
2023/12/30 05:53:10;;;;;;;3.40;2.37;;;;;;;7.77;100.00;148110.50;5026670;28;20723;-60
2023/12/30 05:55:37;;;;;;;5.57;2.10;;;;;;;7.74;100.00;148103.03;5024075;28;20247;-60
2023/12/30 05:58:04;;;;;;;3.80;2.20;;;;;;;7.79;100.00;148115.47;5026128;28;20699;-60
2023/12/30 06:00:30;;;;;;;5.13;2.20;;;;;;;7.75;100.00;148105.53;5025636;28;20274;-60
2023/12/30 06:02:57;;;;;;;3.13;2.03;;;;;;;7.66;100.00;148085.63;5023221;28;20286;-60
2023/12/30 06:05:24;;;;;;;3.90;2.40;;;;;;;7.65;100.00;148083.16;5025838;28;20243;-60
2023/12/30 06:07:52;;;;;;;4.03;2.00;;;;;;;7.63;100.00;148076.91;5022425;28;20227;-60
2023/12/30 06:10:19;;;;;;;4.87;1.97;;;;;;;7.68;100.00;148090.59;5026988;28;20243;-60
2023/12/30 06:12:46;;;;;;;3.73;1.77;;;;;;;7.81;100.00;148121.66;5023119;28;20314;-60
2023/12/30 06:15:13;;;;;;;2.03;1.33;;;;;;;7.86;100.00;148131.59;5026193;28;20234;-60
2023/12/30 06:17:40;;;;;;;3.13;1.87;;;;;;;7.84;100.00;148127.91;5023028;28;20223;-61
2023/12/30 06:20:09;;;;;;;3.00;1.43;;;;;;;7.82;100.00;148124.16;5026049;28;20259;-61
2023/12/30 06:22:36;;;;;;;3.77;1.20;;;;;;;7.78;100.00;148112.97;5023531;28;20219;-60
2023/12/30 06:25:04;;;;;;;1.80;1.40;;;;;;;7.83;100.00;148125.41;5025543;28;20274;-60
2023/12/30 06:27:31;;;;;;;4.63;1.33;;;;;;;7.83;100.00;148125.41;5023538;28;20259;-60
2023/12/30 06:29:57;;;;;;;1.43;1.10;;;;;;;7.84;100.00;148127.91;5025070;28;20227;-60
2023/12/30 06:32:24;;;;;;;2.87;1.60;;;;;;;7.85;100.00;148130.38;5026089;28;20220;-60
2023/12/30 06:34:50;;;;;;;2.97;1.40;;;;;;;7.93;100.00;148149.00;5023317;28;20867;-60
2023/12/30 06:37:16;;;;;;;1.80;1.13;;;;;;;7.94;100.00;148152.75;5025972;28;20243;-60
2023/12/30 06:39:43;;;;;;;1.97;1.20;;;;;;;8.00;100.00;148166.41;5023406;28;20232;-60
2023/12/30 06:42:12;;;;;;;3.00;1.20;;;;;;;8.04;100.00;148175.09;5024993;28;20259;-60
2023/12/30 06:44:38;;;;;;;1.73;1.20;;;;;;;8.03;100.00;148173.88;5021833;28;20231;-60
2023/12/30 06:47:05;;;;;;;3.40;1.40;;;;;;;8.03;100.00;148173.88;5025464;28;20227;-60
2023/12/30 06:49:32;;;;;;;4.73;2.63;;;;;;;8.06;100.00;148181.34;5022899;28;20243;-60
2023/12/30 06:51:58;;;;;;;4.00;1.60;;;;;;;8.09;100.00;148187.53;5025201;28;20240;-60
2023/12/30 06:54:25;;;;;;;43.70;38.40;;;;;;;8.07;100.00;148182.56;5025407;28;20223;-60
2023/12/30 06:56:53;;;;;;;10.43;9.43;;;;;;;8.05;100.00;148178.84;5023049;28;20603;-60
2023/12/30 06:59:21;;;;;;;5.80;2.00;;;;;;;8.04;100.00;148175.09;5021173;28;20317;-60
2023/12/30 07:01:48;;;;;;;2.87;1.70;;;;;;;8.11;100.00;148192.50;5003951;28;20223;-61
2023/12/30 07:04:14;;;;;;;7.03;5.03;;;;;;;8.03;100.00;148173.88;5025054;28;20212;-61
2023/12/30 07:06:41;;;;;;;1.97;1.50;;;;;;;8.01;100.00;148168.91;5022710;28;20223;-61
2023/12/30 07:09:08;;;;;;;7.20;2.50;;;;;;;7.97;100.00;148160.19;5024135;28;20237;-61
2023/12/30 07:11:34;;;;;;;4.43;2.30;;;;;;;7.97;100.00;148160.19;5022316;28;20624;-61
2023/12/30 07:14:01;;;;;;;8.83;7.87;;;;;;;7.95;100.00;148153.97;5022891;28;20358;-61
2023/12/30 07:16:29;;;;;;;4.57;2.40;;;;;;;7.90;100.00;148142.81;5025439;28;20308;-61
2023/12/30 07:18:55;;;;;;;5.33;4.17;;;;;;;7.91;100.00;148144.03;5021629;28;20575;-61
2023/12/30 07:21:22;;;;;;;4.03;3.17;;;;;;;7.89;100.00;148139.06;5024785;28;20223;-61
2023/12/30 07:23:48;;;;;;;6.90;5.07;;;;;;;7.92;100.00;148146.53;5022062;28;20227;-61
2023/12/30 07:26:15;;;;;;;4.60;2.77;;;;;;;7.93;100.00;148150.28;5025309;28;20653;-61
2023/12/30 07:28:42;;;;;;;8.03;6.90;;;;;;;7.91;100.00;148145.31;5022827;28;20212;-61
2023/12/30 07:31:09;;;;;;;4.67;3.37;;;;;;;7.91;100.00;148145.31;5024381;28;20233;-61
2023/12/30 07:33:37;;;;;;;3.53;1.90;;;;;;;7.91;100.00;148145.31;5022374;28;20743;-61
2023/12/30 07:36:06;;;;;;;4.13;1.90;;;;;;;8.01;100.00;148167.63;5023438;28;20236;-61
2023/12/30 07:38:32;;;;;;;5.20;1.80;;;;;;;8.06;100.00;148180.06;5022461;28;20286;-61
2023/12/30 07:40:59;;;;;;;5.20;2.10;;;;;;;8.03;100.00;148173.88;5023820;28;20297;-61
2023/12/30 07:43:26;;;;;;;3.00;1.57;;;;;;;8.06;100.00;148180.06;5023627;28;20228;-61
2023/12/30 07:45:52;;;;;;;5.90;3.13;;;;;;;8.08;100.00;148185.03;5022051;28;20246;-61
2023/12/30 07:48:19;;;;;;;3.20;2.20;;;;;;;8.09;100.00;148187.53;5024779;28;20230;-61
2023/12/30 07:50:47;;;;;;;4.20;2.10;;;;;;;8.08;100.00;148186.31;5022277;28;20227;-60
2023/12/30 07:53:14;;;;;;;5.80;2.20;;;;;;;8.06;100.00;148180.06;5024740;28;20211;-60
2023/12/30 07:55:40;;;;;;;4.93;2.37;;;;;;;8.02;100.00;148171.41;5021671;28;20726;-60
2023/12/30 07:58:07;;;;;;;7.17;2.53;;;;;;;8.02;100.00;148171.41;5024091;28;20718;-60
2023/12/30 08:00:33;;;;;;;3.77;2.30;;;;;;;8.03;100.00;148173.88;5003307;28;20224;-60
2023/12/30 08:03:00;;;;;;;4.68;2.20;;;;;;;8.12;100.00;148195.00;5023541;28;20420;-60
2023/12/30 08:05:27;;;;;;;3.33;1.63;;;;;;;8.09;100.00;148188.81;5024540;28;20243;-59
2023/12/30 08:07:55;;;;;;;3.83;1.30;;;;;;;8.15;100.00;148201.22;5022142;28;20235;-59
2023/12/30 08:10:35;;;;;;;2.80;1.73;;;;;;;8.15;100.00;148201.22;5024246;28;20579;-60
2023/12/30 08:13:02;;;;;;;3.00;2.03;;;;;;;8.20;100.00;148213.66;5021229;28;20645;-61
2023/12/30 08:15:29;;;;;;;4.73;3.73;;;;;;;8.19;100.00;148211.19;5021765;28;20239;-60
2023/12/30 08:17:55;;;;;;;4.70;2.57;;;;;;;8.19;100.00;148212.41;5020746;28;20311;-60
2023/12/30 08:20:22;;;;;;;2.87;1.50;;;;;;;8.22;100.00;148219.88;5024628;28;20238;-60
2023/12/30 08:22:50;;;;;;;22.10;9.57;;;;;;;8.29;100.00;148236.06;5021588;28;20220;-60
2023/12/30 08:25:18;;;;;;;22.17;10.93;;;;;;;8.38;100.00;148258.44;5023495;28;20233;-60
2023/12/30 08:27:44;;;;;;;2.20;1.10;;;;;;;8.32;100.00;148242.25;5019197;28;20217;-60
2023/12/30 08:30:12;;;;;;;16.03;8.70;;;;;;;8.44;100.00;148272.09;5022936;28;20240;-60
2023/12/30 08:32:38;;;;;;;8.07;3.87;;;;;;;8.53;100.00;148294.53;5021278;28;20221;-60
2023/12/30 08:35:07;;;;;;;6.30;3.50;;;;;;;8.54;100.00;148295.75;5022584;28;20243;-60
2023/12/30 08:37:34;;;;;;;2.03;1.80;;;;;;;8.63;100.00;148318.16;5020773;28;20213;-60
2023/12/30 08:40:00;;;;;;;4.73;1.53;;;;;;;8.64;100.00;148319.41;5023219;28;20643;-60
2023/12/30 08:42:34;;;;;;;4.07;1.37;;;;;;;8.61;100.00;148311.94;5022767;28;20233;-60
2023/12/30 08:45:00;;;;;;;3.23;1.47;;;;;;;8.57;100.00;148304.50;5020353;28;20761;-60
2023/12/30 08:47:28;;;;;;;3.53;1.20;;;;;;;8.59;100.00;148308.19;5023662;28;20225;-60
2023/12/30 08:49:55;;;;;;;2.77;1.30;;;;;;;8.63;100.00;148318.16;5020434;28;20262;-61
2023/12/30 08:52:21;;;;;;;5.03;1.20;;;;;;;8.55;100.00;148299.50;5021984;28;20258;-61
2023/12/30 08:54:48;;;;;;;7.83;4.53;;;;;;;8.51;100.00;148288.28;5020823;28;20224;-61
2023/12/30 08:57:15;;;;;;;4.10;2.23;;;;;;;8.45;99.15;148274.59;5023329;28;20711;-61
2023/12/30 08:59:43;;;;;;;6.10;2.10;;;;;;;8.41;98.05;148265.91;5021075;28;20234;-61
2023/12/30 09:02:10;;;;;;;4.20;1.10;;;;;;;8.46;97.42;148277.06;5023451;28;20236;-61
2023/12/30 09:04:37;;;;;;;2.93;1.27;;;;;;;8.39;97.68;148260.94;5021374;28;20224;-61
2023/12/30 09:07:04;;;;;;;3.50;1.10;;;;;;;8.46;95.37;148277.06;5023753;28;20221;-61
2023/12/30 09:09:30;;;;;;;3.50;1.00;;;;;;;8.45;96.21;148274.59;5023811;28;20212;-61
2023/12/30 09:11:57;;;;;;;4.43;1.33;;;;;;;8.52;94.38;148292.06;5024603;28;20238;-61
2023/12/30 09:14:24;;;;;;;2.03;1.00;;;;;;;8.64;92.45;148319.41;5003600;28;20236;-61
2023/12/30 09:16:52;;;;;;;6.37;2.00;;;;;;;8.75;91.52;148346.78;5025136;28;20225;-61
2023/12/30 09:19:18;;;;;;;4.97;0.90;;;;;;;8.89;87.30;148380.34;5027723;28;20747;-61
2023/12/30 09:21:45;;;;;;;2.80;1.30;;;;;;;8.84;90.42;148367.91;5025062;28;20241;-61
2023/12/30 09:24:12;;;;;;;4.47;1.35;;;;;;;8.77;87.88;148350.50;5026106;28;20507;-61
2023/12/30 09:26:38;;;;;;;3.60;1.70;;;;;;;8.72;90.49;148339.31;5024892;28;20221;-61
2023/12/30 09:29:05;;;;;;;4.67;1.70;;;;;;;8.53;90.22;148294.53;5026405;28;20236;-61
2023/12/30 09:31:31;;;;;;;4.77;1.40;;;;;;;8.56;88.48;148302.00;5024847;28;20755;-61
2023/12/30 09:33:59;;;;;;;4.83;1.60;;;;;;;8.59;88.19;148308.19;5027680;28;20297;-61
2023/12/30 09:36:28;;;;;;;6.40;1.50;;;;;;;8.51;88.33;148288.28;5027538;28;20225;-61
2023/12/30 09:38:54;;;;;;;10.70;4.10;;;;;;;8.52;88.90;148290.78;5024542;28;20231;-60
2023/12/30 09:41:25;;;;;;;4.90;2.23;;;;;;;8.50;88.73;148287.06;5026468;28;20228;-60
2023/12/30 09:43:52;;;;;;;11.43;4.80;;;;;;;8.50;88.53;148285.81;5024634;28;24124;-60
2023/12/30 09:46:20;;;;;;;6.43;2.87;;;;;;;8.50;88.08;148287.06;5009814;28;20248;-60
2023/12/30 09:48:49;;;;;;;3.33;1.37;;;;;;;8.50;87.91;148287.06;5022076;28;20222;-60
2023/12/30 09:51:17;;;;;;;12.97;5.97;;;;;;;8.48;88.21;148280.84;5026227;28;20856;-60
2023/12/30 09:53:44;;;;;;;9.50;3.27;;;;;;;8.50;89.28;148287.06;5022133;28;20223;-60
2023/12/30 09:56:11;;;;;;;3.90;1.17;;;;;;;8.47;86.30;148279.56;5025640;28;20233;-60
2023/12/30 09:58:40;;;;;;;6.30;3.13;;;;;;;8.56;87.04;148302.00;5024322;28;20240;-61
2023/12/30 10:01:07;;;;;;;8.50;3.57;;;;;;;8.53;86.94;148293.28;5026558;28;20230;-61
2023/12/30 10:03:34;;;;;;;5.57;3.00;;;;;;;8.52;87.90;148292.06;5024078;28;20217;-61
2023/12/30 10:06:04;;;;;;;12.40;5.17;;;;;;;8.52;86.08;148290.78;5026112;28;20247;-60
2023/12/30 10:08:32;;;;;;;9.60;3.53;;;;;;;8.51;89.47;148289.56;5026370;28;20225;-61
2023/12/30 10:10:59;;;;;;;8.30;3.57;;;;;;;8.57;86.82;148304.50;5023472;28;20239;-61
2023/12/30 10:13:26;;;;;;;2.70;0.70;;;;;;;8.83;81.76;148366.69;5026622;28;20219;-60
2023/12/30 10:15:55;;;;;;;2.93;0.93;;;;;;;9.02;82.64;148411.44;5024003;28;20227;-61
2023/12/30 10:18:22;;;;;;;14.40;7.23;;;;;;;9.01;82.96;148410.22;5026250;28;20235;-61
2023/12/30 10:20:48;;;;;;;2.97;1.83;;;;;;;9.16;82.22;148446.28;5005428;28;20315;-61
2023/12/30 10:23:15;;;;;;;2.33;0.60;;;;;;;9.35;78.82;148491.06;5025469;28;20217;-61
2023/12/30 10:25:43;;;;;;;7.27;3.33;;;;;;;9.25;83.58;148467.47;5021513;28;20220;-61
2023/12/30 10:28:10;;;;;;;5.47;2.87;;;;;;;9.38;84.54;148497.31;5025392;28;20692;-61
2023/12/30 10:30:36;;;;;;;6.93;3.90;;;;;;;9.47;82.28;148519.72;5023643;28;20224;-61
2023/12/30 10:33:08;;;;;;;4.33;1.97;;;;;;;9.47;83.23;148518.47;5026299;28;20241;-61
2023/12/30 10:35:34;;;;;;;3.47;1.73;;;;;;;9.50;83.03;148525.94;5022335;28;20310;-60
2023/12/30 10:38:03;;;;;;;4.23;1.10;;;;;;;9.64;82.13;148559.50;5025688;28;20240;-60
2023/12/30 10:40:30;;;;;;;3.53;1.40;;;;;;;9.70;83.30;148574.44;5025748;28;20228;-60
2023/12/30 10:42:58;;;;;;;3.93;0.97;;;;;;;9.80;81.06;148599.34;5003747;28;20600;-60
2023/12/30 10:45:25;;;;;;;3.30;1.20;;;;;;;9.75;80.94;148588.16;5025154;28;20220;-61
2023/12/30 10:47:52;;;;;;;3.00;0.83;;;;;;;9.87;78.32;148616.78;5022957;28;20329;-61
2023/12/30 10:50:20;;;;;;;2.87;1.10;;;;;;;9.53;82.92;148534.66;5026203;28;20677;-61
2023/12/30 10:52:52;;;;;;;4.47;2.03;;;;;;;9.67;82.97;148568.25;5023427;28;20226;-60
2023/12/30 10:55:20;;;;;;;4.57;1.27;;;;;;;9.61;81.83;148553.31;5025680;28;20242;-60
2023/12/30 10:57:50;;;;;;;2.53;0.83;;;;;;;9.77;82.03;148590.66;5023296;28;20214;-60
2023/12/30 11:00:21;;;;;;;1.97;1.30;;;;;;;9.56;83.41;148542.09;5025595;28;20221;-60
2023/12/30 11:02:48;;;;;;;3.03;0.90;;;;;;;9.77;81.11;148591.88;5021687;28;20234;-60
2023/12/30 11:05:25;;;;;;;9.97;5.47;;;;;;;9.78;83.94;148593.16;5025602;28;20724;-60
2023/12/30 11:07:51;;;;;;;10.53;5.53;;;;;;;9.78;83.58;148594.38;5022737;28;22815;-61
2023/12/30 11:10:20;;;;;;;13.57;7.40;;;;;;;9.89;83.45;148620.53;5024842;28;20242;-60
2023/12/30 11:12:46;;;;;;;12.13;5.63;;;;;;;10.00;83.58;148646.66;5020287;28;20236;-60
2023/12/30 11:15:29;;;;;;;17.17;6.57;;;;;;;10.02;83.83;148652.91;5024053;28;20578;-60
2023/12/30 11:17:57;;;;;;;4.97;1.97;;;;;;;10.01;82.29;148649.16;5021010;28;20236;-60
2023/12/30 11:20:38;;;;;;;2.03;0.80;;;;;;;10.30;82.17;148720.09;5024828;28;20246;-61
2023/12/30 11:23:07;;;;;;;4.03;1.40;;;;;;;10.40;82.41;148743.84;4941498;28;20334;-61
2023/12/30 11:25:37;;;;;;;1.77;1.20;;;;;;;10.38;79.29;148737.53;5022893;28;20216;-61
2023/12/30 11:28:14;;;;;;;2.77;0.73;;;;;;;10.52;78.53;148771.22;5024872;28;20233;-61